Time;durP1;ratioP1;P1;durP2;ratioP2;P2;SDS_P1;SDS_P2;PMS_P1;PMS_P2;Temp;Humidity;BMP_temperature;BMP_pressure;BME280_temperature;BME280_humidity;BME280_pressure;Samples;Min_cycle;Max_cycle;Signal;HPM_P1;HPM_P2
2022/10/09 00:00:51;;;;;;;4.38;2.88;;;;;;;5.81;100.00;102491.69;5041340;28;20040;-70
2022/10/09 00:03:17;;;;;;;5.50;3.17;;;;;;;5.90;100.00;102488.88;5053344;28;20068;-69
2022/10/09 00:05:44;;;;;;;5.38;3.78;;;;;;;5.97;100.00;102493.22;5059817;28;20135;-70
2022/10/09 00:08:10;;;;;;;9.80;3.60;;;;;;;6.02;100.00;102494.88;5056686;28;20769;-70
2022/10/09 00:10:42;;;;;;;13.27;4.30;;;;;;;6.02;100.00;102493.09;5031516;28;20032;-70
2022/10/09 00:13:08;;;;;;;;;;;;;;;6.03;100.00;102486.94;5057152;28;20252;-70
2022/10/09 00:15:37;;;;;;;4.60;2.92;;;;;;;5.90;100.00;102491.53;5057365;28;20615;-69
2022/10/09 00:18:02;;;;;;;6.88;3.45;;;;;;;5.95;100.00;102492.34;5041870;28;20048;-70
2022/10/09 00:20:28;;;;;;;10.43;4.78;;;;;;;5.92;100.00;102486.22;5057712;28;20105;-70
2022/10/09 00:22:54;;;;;;;14.57;4.38;;;;;;;5.87;100.00;102493.34;5048922;28;20497;-70
2022/10/09 00:25:19;;;;;;;5.47;3.08;;;;;;;5.78;100.00;102494.41;5036558;28;20564;-70
2022/10/09 00:27:44;;;;;;;10.50;2.85;;;;;;;5.74;100.00;102494.47;5056230;28;20044;-69
2022/10/09 00:30:10;;;;;;;8.40;2.60;;;;;;;5.81;100.00;102498.75;5036454;28;20032;-70
2022/10/09 00:32:35;;;;;;;13.13;4.50;;;;;;;5.94;100.00;102498.56;5058096;28;20063;-68
2022/10/09 00:35:01;;;;;;;9.13;4.15;;;;;;;5.92;100.00;102497.72;5035803;28;20032;-69
2022/10/09 00:37:27;;;;;;;7.03;4.57;;;;;;;5.77;100.00;102494.41;5052884;28;20036;-69
2022/10/09 00:39:53;;;;;;;10.30;4.93;;;;;;;5.59;100.00;102490.31;5059685;28;20075;-70
2022/10/09 00:42:18;;;;;;;13.52;3.72;;;;;;;5.48;100.00;102494.91;5059300;28;20040;-70
2022/10/09 00:44:58;;;;;;;11.88;3.20;;;;;;;5.66;100.00;102490.16;5057031;28;20041;-70
2022/10/09 00:47:32;;;;;;;9.13;4.55;;;;;;;5.80;100.00;102492.59;5056852;28;20033;-70
2022/10/09 00:50:07;;;;;;;12.68;4.03;;;;;;;5.85;100.00;102488.09;5060030;28;20040;-70
2022/10/09 00:52:33;;;;;;;14.20;6.22;;;;;;;5.77;100.00;102489.09;5051021;28;20044;-69
2022/10/09 00:55:00;;;;;;;8.43;4.35;;;;;;;5.49;100.00;102497.50;5056118;28;20049;-68
2022/10/09 00:57:26;;;;;;;10.88;4.10;;;;;;;5.49;100.00;102496.63;5057820;28;20033;-69
2022/10/09 00:59:51;;;;;;;6.90;3.60;;;;;;;5.50;100.00;102496.59;5052227;28;20496;-69
2022/10/09 01:02:17;;;;;;;10.30;3.70;;;;;;;5.63;100.00;102499.94;5052910;28;20044;-68
2022/10/09 01:04:42;;;;;;;15.00;4.32;;;;;;;5.71;100.00;102496.25;5058709;28;20963;-70
2022/10/09 01:07:20;;;;;;;7.43;3.90;;;;;;;5.61;100.00;102494.66;5058054;28;20036;-70
2022/10/09 01:09:55;;;;;;;6.13;3.47;;;;;;;5.41;100.00;102496.75;5058471;28;20358;-70
2022/10/09 01:12:51;;;;;;;9.60;3.38;;;;;;;5.35;100.00;102496.84;5045372;28;20493;-69
2022/10/09 01:15:23;;;;;;;7.60;4.05;;;;;;;5.30;100.00;102491.63;5058887;28;20111;-69
2022/10/09 01:18:07;;;;;;;8.18;3.50;;;;;;;5.35;100.00;102488.91;5058029;28;20044;-69
2022/10/09 01:20:56;;;;;;;9.35;3.88;;;;;;;5.46;100.00;102493.13;5052636;28;20614;-68
2022/10/09 01:23:53;;;;;;;9.38;4.32;;;;;;;5.43;100.00;102490.53;5053703;28;20071;-70
2022/10/09 01:26:24;;;;;;;9.63;5.65;;;;;;;5.48;100.00;102490.47;5054347;28;20032;-70
2022/10/09 01:28:56;;;;;;;14.73;4.53;;;;;;;5.41;100.00;102484.38;5057191;28;20068;-70
2022/10/09 01:31:26;;;;;;;8.07;2.97;;;;;;;5.09;100.00;102487.53;5036072;28;20143;-70
2022/10/09 01:33:52;;;;;;;5.68;2.67;;;;;;;4.97;100.00;102487.69;5057776;28;20075;-70
2022/10/09 01:36:19;;;;;;;7.97;3.17;;;;;;;5.08;100.00;102488.41;5054841;28;20460;-70
2022/10/09 01:38:45;;;;;;;12.68;4.22;;;;;;;5.17;100.00;102480.38;5056791;28;20052;-69
2022/10/09 01:41:11;;;;;;;10.05;5.50;;;;;;;5.34;100.00;102482.75;5054088;28;20099;-70
2022/10/09 01:43:36;;;;;;;15.50;5.15;;;;;;;5.34;100.00;102466.88;5061412;28;20040;-69
2022/10/09 01:46:24;;;;;;;10.45;5.03;;;;;;;5.39;100.00;102475.63;5061384;28;20040;-68
2022/10/09 01:49:30;;;;;;;7.50;4.63;;;;;;;5.40;100.00;102472.06;5061224;28;20076;-68
2022/10/09 01:52:09;;;;;;;5.47;3.42;;;;;;;5.07;100.00;102469.91;5042985;28;20052;-70
2022/10/09 01:55:00;;;;;;;4.80;2.65;;;;;;;4.84;100.00;102464.97;5057938;28;20106;-70
2022/10/09 01:57:50;;;;;;;4.38;3.20;;;;;;;4.80;100.00;102466.75;5048960;28;20611;-68
2022/10/09 02:00:15;;;;;;;10.73;3.40;;;;;;;4.76;100.00;102462.41;5049256;28;20136;-70
2022/10/09 02:02:42;;;;;;;7.80;3.60;;;;;;;4.76;100.00;102466.81;5043031;28;20120;-69
2022/10/09 02:05:18;;;;;;;9.75;3.65;;;;;;;4.85;100.00;102458.78;5041923;28;20049;-69
2022/10/09 02:07:44;;;;;;;6.82;3.42;;;;;;;4.95;100.00;102449.81;5060135;28;20444;-69
2022/10/09 02:10:10;;;;;;;10.88;4.15;;;;;;;5.16;100.00;102456.56;5042257;28;20378;-70
2022/10/09 02:12:45;;;;;;;11.10;4.75;;;;;;;5.09;100.00;102457.56;5059920;28;20477;-70
2022/10/09 02:15:11;;;;;;;6.10;2.80;;;;;;;4.92;100.00;102460.47;5037088;28;20039;-70
2022/10/09 02:17:44;;;;;;;11.02;2.60;;;;;;;4.76;100.00;102459.75;5060006;28;20032;-70
2022/10/09 02:20:20;;;;;;;2.67;2.30;;;;;;;4.80;100.00;102452.69;5052768;28;20037;-70
2022/10/09 02:22:47;;;;;;;2.88;2.50;;;;;;;4.77;100.00;102453.59;5061300;28;20068;-69
2022/10/09 02:25:14;;;;;;;5.63;3.47;;;;;;;4.86;100.00;102448.16;5056972;28;20128;-68
2022/10/09 02:27:40;;;;;;;9.85;3.55;;;;;;;4.90;100.00;102441.97;5061031;28;20053;-69
2022/10/09 02:30:08;;;;;;;11.98;5.03;;;;;;;5.10;100.00;102443.44;5058402;28;20128;-68
2022/10/09 02:32:33;;;;;;;10.02;4.40;;;;;;;5.07;100.00;102443.47;5058019;28;20049;-68
2022/10/09 02:34:59;;;;;;;7.68;3.25;;;;;;;4.80;100.00;102448.25;5060275;28;20891;-69
2022/10/09 02:37:24;;;;;;;7.60;4.13;;;;;;;4.50;100.00;102441.59;5061620;28;20059;-69
2022/10/09 02:39:50;;;;;;;5.88;3.15;;;;;;;4.46;100.00;102445.16;5061205;28;20489;-69
2022/10/09 02:42:15;;;;;;;7.18;3.70;;;;;;;4.68;100.00;102438.75;5059648;28;20424;-70
2022/10/09 02:44:41;;;;;;;8.70;3.78;;;;;;;4.78;100.00;102441.25;5058137;28;20089;-70
2022/10/09 02:47:07;;;;;;;6.40;3.45;;;;;;;4.83;100.00;102442.94;5048803;28;20044;-69
2022/10/09 02:49:32;;;;;;;7.97;4.25;;;;;;;4.89;100.00;102434.94;5058577;28;20032;-71
2022/10/09 02:51:58;;;;;;;12.00;3.50;;;;;;;4.76;100.00;102441.25;5034091;28;20044;-70
2022/10/09 02:54:23;;;;;;;5.40;3.75;;;;;;;4.74;100.00;102439.56;5061551;28;20452;-69
2022/10/09 02:56:48;;;;;;;6.15;3.65;;;;;;;4.70;100.00;102443.13;5053322;28;20726;-70
2022/10/09 02:59:14;;;;;;;8.00;3.33;;;;;;;4.70;100.00;102443.13;5058787;28;20102;-69
2022/10/09 03:01:39;;;;;;;5.55;3.33;;;;;;;4.76;100.00;102441.25;5043381;28;20174;-70
2022/10/09 03:04:05;;;;;;;8.32;3.38;;;;;;;4.72;100.00;102434.31;5059617;28;20036;-69
2022/10/09 03:06:30;;;;;;;3.20;2.60;;;;;;;4.61;100.00;102431.78;5060418;28;20064;-70
2022/10/09 03:08:56;;;;;;;10.15;3.13;;;;;;;4.61;100.00;102442.34;5060350;28;20072;-69
2022/10/09 03:11:23;;;;;;;9.65;3.30;;;;;;;4.58;100.00;102436.25;5055130;28;20048;-69
2022/10/09 03:13:49;;;;;;;2.33;2.13;;;;;;;4.42;100.00;102435.56;5056875;28;20136;-69
2022/10/09 03:16:20;;;;;;;3.00;2.47;;;;;;;4.38;100.00;102429.44;5060033;28;20044;-71
2022/10/09 03:18:47;;;;;;;4.82;2.60;;;;;;;4.39;100.00;102433.81;5060467;28;20090;-70
2022/10/09 03:21:18;;;;;;;7.03;3.30;;;;;;;4.45;100.00;102426.72;5056630;28;20076;-70
2022/10/09 03:23:44;;;;;;;6.18;3.08;;;;;;;4.46;100.00;102428.44;5061328;28;20089;-69
2022/10/09 03:26:13;;;;;;;3.90;3.00;;;;;;;4.47;100.00;102423.19;5053612;28;20476;-69
2022/10/09 03:28:41;;;;;;;5.32;3.38;;;;;;;4.52;100.00;102424.00;5054223;28;20119;-70
2022/10/09 03:31:07;;;;;;;9.73;2.92;;;;;;;4.43;100.00;102428.50;5062083;28;20051;-70
2022/10/09 03:33:34;;;;;;;3.08;2.78;;;;;;;4.46;100.00;102420.53;5039951;28;20048;-69
2022/10/09 03:36:00;;;;;;;2.63;2.25;;;;;;;4.42;100.00;102419.72;5041950;28;20453;-70
2022/10/09 03:38:25;;;;;;;2.80;2.58;;;;;;;4.38;100.00;102420.66;5059085;28;20043;-69
2022/10/09 03:40:51;;;;;;;3.15;2.88;;;;;;;4.28;100.00;102421.66;5054369;28;20041;-68
2022/10/09 03:43:16;;;;;;;9.13;3.88;;;;;;;4.26;100.00;102426.06;5058794;28;20111;-68
2022/10/09 03:45:42;;;;;;;7.95;2.90;;;;;;;4.29;100.00;102415.47;5060335;28;20046;-70
2022/10/09 03:48:12;;;;;;;4.38;3.00;;;;;;;4.31;100.00;102419.81;5055368;28;20044;-69
2022/10/09 03:50:38;;;;;;;10.77;3.20;;;;;;;4.29;100.00;102426.03;5060300;28;20044;-69
2022/10/09 03:53:05;;;;;;;5.47;2.70;;;;;;;4.19;100.00;102427.03;5060568;28;20040;-69
2022/10/09 03:55:30;;;;;;;7.25;2.80;;;;;;;4.00;100.00;102429.84;5060281;28;20469;-70
2022/10/09 03:57:56;;;;;;;2.65;2.10;;;;;;;3.90;100.00;102431.72;5041491;28;20040;-69
2022/10/09 04:00:22;;;;;;;1.73;1.63;;;;;;;3.92;100.00;102426.44;5054901;28;20095;-70
2022/10/09 04:02:47;;;;;;;1.90;1.67;;;;;;;4.03;100.00;102431.59;5057188;28;20756;-69
2022/10/09 04:05:13;;;;;;;3.10;2.40;;;;;;;4.06;100.00;102436.84;5052763;28;20063;-69
2022/10/09 04:07:38;;;;;;;10.57;3.20;;;;;;;4.05;100.00;102433.31;5052718;28;20036;-70
2022/10/09 04:10:04;;;;;;;4.88;2.92;;;;;;;4.07;100.00;102431.56;5052058;28;20047;-69
2022/10/09 04:12:29;;;;;;;4.63;3.00;;;;;;;4.11;100.00;102438.53;5038533;28;20051;-70
2022/10/09 04:14:55;;;;;;;8.13;2.97;;;;;;;4.18;100.00;102436.72;5053943;28;20820;-70
2022/10/09 04:17:20;;;;;;;6.60;3.30;;;;;;;4.19;100.00;102437.59;5040975;28;20032;-70
2022/10/09 04:19:46;;;;;;;6.70;3.38;;;;;;;4.12;100.00;102439.44;5057938;28;20417;-70
2022/10/09 04:22:11;;;;;;;4.05;2.60;;;;;;;4.03;100.00;102440.41;5060410;28;20066;-70
2022/10/09 04:24:37;;;;;;;5.50;2.95;;;;;;;3.92;100.00;102436.13;5059839;28;20047;-68
2022/10/09 04:27:03;;;;;;;3.25;2.05;;;;;;;3.84;100.00;102433.56;5033514;28;20037;-70
2022/10/09 04:29:28;;;;;;;4.70;2.00;;;;;;;3.91;100.00;102435.22;5054827;28;20123;-71
2022/10/09 04:31:53;;;;;;;5.35;2.60;;;;;;;3.93;100.00;102433.47;5059605;28;20043;-70
2022/10/09 04:34:19;;;;;;;3.95;2.05;;;;;;;3.84;100.00;102439.69;5054678;28;20048;-67
2022/10/09 04:36:44;;;;;;;9.93;3.05;;;;;;;3.78;100.00;102426.56;5053912;28;20036;-69
2022/10/09 04:39:10;;;;;;;4.68;2.30;;;;;;;3.70;100.00;102431.03;5041770;28;20044;-70
2022/10/09 04:41:35;;;;;;;2.40;2.08;;;;;;;3.57;100.00;102427.66;5041783;28;20044;-70
2022/10/09 04:44:01;;;;;;;5.57;3.35;;;;;;;3.66;100.00;102429.31;5040186;28;20040;-70
2022/10/09 04:46:27;;;;;;;7.32;2.70;;;;;;;3.84;100.00;102436.19;5049103;28;20059;-70
2022/10/09 04:48:53;;;;;;;4.22;2.55;;;;;;;3.95;100.00;102430.81;5057885;28;20473;-70
2022/10/09 04:51:18;;;;;;;6.15;3.03;;;;;;;3.96;100.00;102440.47;5060340;28;20043;-68
2022/10/09 04:53:44;;;;;;;5.43;2.75;;;;;;;3.76;100.00;102432.75;5054814;28;20032;-70
2022/10/09 04:56:13;;;;;;;4.88;2.85;;;;;;;3.56;100.00;102439.06;5059910;28;20171;-70
2022/10/09 04:58:39;;;;;;;7.10;2.30;;;;;;;3.56;100.00;102435.56;5040679;28;20052;-68
2022/10/09 05:01:20;;;;;;;5.78;2.72;;;;;;;3.72;100.00;102431.91;5058214;28;20127;-68
2022/10/09 05:03:46;;;;;;;4.28;2.95;;;;;;;3.85;100.00;102432.66;5028466;28;20041;-68
2022/10/09 05:06:13;;;;;;;9.98;4.22;;;;;;;3.81;100.00;102428.28;5050394;28;20055;-68
2022/10/09 05:08:39;;;;;;;5.38;2.70;;;;;;;3.79;100.00;102422.16;5054033;28;20127;-68
2022/10/09 05:11:13;;;;;;;5.60;3.15;;;;;;;3.68;100.00;102414.38;5056042;28;20040;-68
2022/10/09 05:13:41;;;;;;;2.65;2.20;;;;;;;3.54;100.00;102421.53;5058750;28;20044;-70
2022/10/09 05:16:10;;;;;;;3.25;2.30;;;;;;;3.58;100.00;102412.69;5060750;28;20047;-68
2022/10/09 05:18:41;;;;;;;8.80;3.47;;;;;;;3.76;100.00;102415.16;5062680;28;20041;-68
2022/10/09 05:21:07;;;;;;;8.95;3.92;;;;;;;3.80;100.00;102416.00;5060981;28;20032;-69
2022/10/09 05:23:34;;;;;;;10.27;4.47;;;;;;;3.88;100.00;102406.25;5059529;28;20059;-70
2022/10/09 05:26:02;;;;;;;7.20;3.75;;;;;;;3.86;100.00;102408.88;5059908;28;20036;-69
2022/10/09 05:28:28;;;;;;;9.98;4.22;;;;;;;3.91;100.00;102411.47;5060535;28;20068;-69
2022/10/09 05:30:53;;;;;;;6.53;3.83;;;;;;;3.89;100.00;102419.41;5060438;28;20115;-69
2022/10/09 05:33:19;;;;;;;9.48;3.55;;;;;;;3.72;100.00;102417.84;5026217;28;20051;-70
2022/10/09 05:35:53;;;;;;;3.47;2.60;;;;;;;3.43;100.00;102421.63;5060788;28;20141;-68
2022/10/09 05:38:20;;;;;;;7.88;2.78;;;;;;;3.26;100.00;102418.22;5057911;28;20040;-69
2022/10/09 05:40:57;;;;;;;4.95;2.97;;;;;;;3.38;100.00;102418.16;5043114;28;20045;-69
2022/10/09 05:43:27;;;;;;;3.92;2.58;;;;;;;3.40;100.00;102413.72;5058986;28;20131;-70
2022/10/09 05:45:53;;;;;;;7.88;3.58;;;;;;;3.38;100.00;102424.28;5058692;28;20047;-70
2022/10/09 05:48:19;;;;;;;6.95;2.80;;;;;;;3.44;100.00;102415.44;5041340;28;20037;-69
2022/10/09 05:50:45;;;;;;;5.40;3.05;;;;;;;3.48;100.00;102414.53;5062650;28;20040;-68
2022/10/09 05:53:10;;;;;;;7.00;3.90;;;;;;;3.52;100.00;102418.91;5038555;28;20074;-70
2022/10/09 05:55:36;;;;;;;8.18;3.50;;;;;;;3.49;100.00;102421.56;5057873;28;20124;-68
2022/10/09 05:58:01;;;;;;;4.30;3.40;;;;;;;3.56;100.00;102417.97;5059514;28;20495;-68
2022/10/09 06:00:27;;;;;;;7.50;4.10;;;;;;;3.57;100.00;102413.59;5060454;28;20041;-69
2022/10/09 06:02:53;;;;;;;6.85;3.25;;;;;;;3.54;100.00;102410.97;5060617;28;20064;-68
2022/10/09 06:05:18;;;;;;;12.40;4.78;;;;;;;3.54;100.00;102413.59;5040118;28;20056;-69
2022/10/09 06:07:45;;;;;;;7.00;3.92;;;;;;;3.71;100.00;102403.75;5056652;28;20435;-69
2022/10/09 06:10:11;;;;;;;6.50;3.97;;;;;;;3.63;100.00;102411.75;5056911;28;20048;-69
2022/10/09 06:12:36;;;;;;;13.50;3.88;;;;;;;3.82;100.00;102404.56;5038496;28;20115;-70
2022/10/09 06:15:02;;;;;;;5.18;3.13;;;;;;;3.81;100.00;102417.75;5061080;28;20051;-69
2022/10/09 06:17:28;;;;;;;4.90;3.85;;;;;;;3.83;100.00;102410.69;5043937;28;20063;-69
2022/10/09 06:19:53;;;;;;;11.35;5.28;;;;;;;4.02;100.00;102421.94;5060056;28;20036;-70
2022/10/09 06:22:19;;;;;;;15.77;6.13;;;;;;;4.08;100.00;102411.31;5059172;28;20078;-68
2022/10/09 06:24:44;;;;;;;6.35;4.18;;;;;;;4.03;100.00;102413.13;5057658;28;20114;-70
2022/10/09 06:27:11;;;;;;;9.40;4.60;;;;;;;4.04;100.00;102425.44;5039493;28;20036;-69
2022/10/09 06:29:37;;;;;;;7.45;3.50;;;;;;;4.06;100.00;102429.78;5059744;28;20040;-70
2022/10/09 06:32:02;;;;;;;9.80;3.58;;;;;;;4.16;100.00;102425.28;5059866;28;20051;-69
2022/10/09 06:34:28;;;;;;;10.98;4.63;;;;;;;4.39;100.00;102420.63;5057406;28;20040;-68
2022/10/09 06:36:53;;;;;;;6.25;3.72;;;;;;;4.50;100.00;102424.88;5057977;28;20828;-69
2022/10/09 06:39:19;;;;;;;10.32;4.95;;;;;;;4.58;100.00;102428.31;5041912;28;20044;-69
2022/10/09 06:41:44;;;;;;;9.32;3.72;;;;;;;4.83;100.00;102427.09;5060745;28;20118;-69
2022/10/09 06:44:22;;;;;;;7.53;3.30;;;;;;;4.78;100.00;102434.22;5058049;28;20041;-70
2022/10/09 06:46:48;;;;;;;8.38;3.70;;;;;;;5.00;100.00;102426.84;5056364;28;20101;-69
2022/10/09 06:49:13;;;;;;;8.43;3.83;;;;;;;5.28;100.00;102429.06;5061119;28;20036;-69
2022/10/09 06:51:39;;;;;;;7.53;4.57;;;;;;;5.67;100.00;102438.09;5057733;28;20043;-70
2022/10/09 06:54:10;;;;;;;9.90;4.43;;;;;;;6.11;100.00;102439.13;5058776;28;20118;-70
2022/10/09 06:56:35;;;;;;;9.50;4.95;;;;;;;6.58;100.00;102424.94;5055766;28;20159;-70
2022/10/09 06:59:03;;;;;;;15.43;5.25;;;;;;;6.56;100.00;102434.66;5055691;28;20093;-69
2022/10/09 07:01:30;;;;;;;11.95;5.03;;;;;;;6.92;100.00;102429.47;5060506;28;20036;-70
2022/10/09 07:04:05;;;;;;;16.58;4.75;;;;;;;7.03;100.00;102426.56;5037670;28;20020;-68
2022/10/09 07:06:35;;;;;;;12.63;5.28;;;;;;;7.35;100.00;102432.00;5040553;28;20498;-68
2022/10/09 07:09:04;;;;;;;10.13;5.80;;;;;;;7.99;100.00;102424.16;5057207;28;20044;-70
2022/10/09 07:11:38;;;;;;;11.23;5.55;;;;;;;8.18;100.00;102417.44;5038314;28;20036;-69
2022/10/09 07:14:07;;;;;;;21.65;7.72;;;;;;;8.80;100.00;102429.84;5037289;28;20037;-70
2022/10/09 07:16:40;;;;;;;13.35;6.15;;;;;;;9.15;100.00;102418.09;5040536;28;20040;-68
2022/10/09 07:19:09;;;;;;;11.95;6.35;;;;;;;9.25;100.00;102421.31;5056617;28;20665;-70
2022/10/09 07:21:35;;;;;;;10.95;6.63;;;;;;;9.04;100.00;102423.75;5053595;28;20090;-69
2022/10/09 07:24:01;;;;;;;14.02;7.70;;;;;;;9.58;100.00;102419.31;5055629;28;20079;-69
2022/10/09 07:26:29;;;;;;;18.50;7.97;;;;;;;9.96;100.00;102426.00;5057137;28;20076;-70
2022/10/09 07:28:55;;;;;;;18.25;8.45;;;;;;;9.92;100.00;102413.69;5038632;28;20493;-69
2022/10/09 07:31:22;;;;;;;13.50;7.60;;;;;;;10.03;100.00;102416.84;5057538;28;20885;-70
2022/10/09 07:33:52;;;;;;;12.73;7.93;;;;;;;10.25;100.00;102414.31;5053298;28;20041;-68
2022/10/09 07:36:19;;;;;;;15.77;8.02;;;;;;;10.17;100.00;102416.34;5058276;28;20051;-69
2022/10/09 07:38:52;;;;;;;16.05;8.60;;;;;;;10.33;100.00;102414.91;5059856;28;20481;-70
2022/10/09 07:41:18;;;;;;;18.88;8.57;;;;;;;9.98;100.00;102416.13;5059355;28;20819;-69
2022/10/09 07:43:44;;;;;;;18.05;9.15;;;;;;;9.96;100.00;102423.34;5052722;28;20041;-70
2022/10/09 07:46:12;;;;;;;19.35;9.77;;;;;;;9.95;100.00;102418.94;5056499;28;20838;-69
2022/10/09 07:48:38;;;;;;;16.65;9.27;;;;;;;9.66;100.00;102417.28;5058626;28;20396;-69
2022/10/09 07:51:15;;;;;;;18.02;7.75;;;;;;;9.57;100.00;102421.13;5057775;28;20036;-70
2022/10/09 07:53:41;;;;;;;22.33;9.80;;;;;;;9.41;100.00;102424.34;5056319;28;20044;-70
2022/10/09 07:56:06;;;;;;;19.83;9.75;;;;;;;9.35;100.00;102422.78;5056558;28;20109;-69
2022/10/09 07:58:32;;;;;;;22.95;11.65;;;;;;;9.59;100.00;102432.59;5036907;28;20068;-70
2022/10/09 08:01:07;;;;;;;16.63;10.07;;;;;;;9.60;100.00;102414.84;5057587;28;20484;-69
2022/10/09 08:03:34;;;;;;;21.55;9.63;;;;;;;9.60;100.00;102420.16;5055114;28;20486;-68
2022/10/09 08:05:59;;;;;;;26.13;10.73;;;;;;;9.69;100.00;102417.19;5038522;28;20536;-69
2022/10/09 08:08:25;;;;;;;25.45;12.07;;;;;;;9.92;100.00;102412.84;5034345;28;20036;-69
2022/10/09 08:10:50;;;;;;;22.33;10.18;;;;;;;9.99;100.00;102414.34;5057846;28;20040;-70
2022/10/09 08:13:16;;;;;;;23.52;9.63;;;;;;;10.22;100.00;102408.19;5035678;28;20071;-68
2022/10/09 08:15:42;;;;;;;20.45;9.02;;;;;;;10.37;100.00;102411.19;5058296;28;20460;-70
2022/10/09 08:18:09;;;;;;;17.40;9.27;;;;;;;10.28;100.00;102408.88;5056193;28;20056;-70
2022/10/09 08:20:34;;;;;;;18.50;8.65;;;;;;;10.46;100.00;102402.00;5049691;28;20081;-69
2022/10/09 08:23:00;;;;;;;18.73;8.63;;;;;;;10.69;100.00;102394.88;5051851;28;20048;-68
2022/10/09 08:25:25;;;;;;;19.33;8.38;;;;;;;10.73;100.00;102388.50;5034753;28;20146;-67
2022/10/09 08:27:52;;;;;;;18.13;7.90;;;;;;;10.69;100.00;102400.22;5036116;28;20037;-69
2022/10/09 08:30:17;;;;;;;15.50;8.25;;;;;;;10.60;100.00;102399.66;5051803;28;20033;-69
2022/10/09 08:32:43;;;;;;;20.70;8.52;;;;;;;10.92;100.00;102392.19;5056863;28;20044;-69
2022/10/09 08:35:08;;;;;;;14.85;7.63;;;;;;;10.89;100.00;102393.19;5057084;28;20052;-69
2022/10/09 08:37:34;;;;;;;18.75;8.25;;;;;;;11.14;100.00;102387.75;5055826;28;20044;-71
2022/10/09 08:40:00;;;;;;;20.75;7.63;;;;;;;11.15;100.00;102384.13;5040315;28;20029;-69
2022/10/09 08:42:46;;;;;;;15.23;7.18;;;;;;;11.23;100.00;102389.13;5053726;28;20560;-69
2022/10/09 08:45:18;;;;;;;18.27;7.78;;;;;;;11.38;100.00;102382.28;5058656;28;20036;-68
2022/10/09 08:47:45;;;;;;;16.30;7.10;;;;;;;11.32;100.00;102388.75;5036150;28;20072;-68
2022/10/09 08:50:17;;;;;;;17.92;7.65;;;;;;;11.30;100.00;102379.09;5055648;28;20036;-68
2022/10/09 08:52:51;;;;;;;14.07;7.93;;;;;;;11.33;100.00;102381.63;5036360;28;20147;-70
2022/10/09 08:55:20;;;;;;;14.70;6.97;;;;;;;11.46;100.00;102380.19;5053440;28;20067;-68
2022/10/09 08:57:50;;;;;;;11.82;7.05;;;;;;;11.50;100.00;102376.44;5053793;28;20052;-68
2022/10/09 09:00:19;;;;;;;17.10;7.00;;;;;;;11.86;100.00;102381.16;5034023;28;20040;-69
2022/10/09 09:02:56;;;;;;;16.00;6.90;;;;;;;11.81;100.00;102367.97;5056687;28;20035;-72
2022/10/09 09:05:32;;;;;;;18.23;7.40;;;;;;;11.95;100.00;102369.19;5039471;28;20114;-70
2022/10/09 09:08:28;;;;;;;12.55;5.88;;;;;;;12.03;100.00;102359.88;5053298;28;20899;-71
2022/10/09 09:11:37;;;;;;;19.45;6.53;;;;;;;12.25;100.00;102358.91;5057499;28;20040;-71
2022/10/09 09:14:35;;;;;;;20.42;7.10;;;;;;;12.24;100.00;102351.81;5057293;28;20771;-70
2022/10/09 09:17:17;;;;;;;9.73;6.63;;;;;;;12.61;100.00;102359.88;5038218;28;20047;-69
2022/10/09 09:19:53;;;;;;;11.00;6.00;;;;;;;12.52;97.82;102354.94;5057506;28;20044;-71
2022/10/09 09:22:20;;;;;;;14.68;6.40;;;;;;;12.76;96.10;102352.91;5057048;28;20040;-69
2022/10/09 09:24:53;;;;;;;19.45;7.47;;;;;;;13.05;95.23;102345.25;5051609;28;20060;-69
2022/10/09 09:27:26;;;;;;;16.65;6.72;;;;;;;13.16;96.41;102341.13;5055908;28;20033;-71
2022/10/09 09:30:01;;;;;;;11.40;6.20;;;;;;;13.20;95.96;102336.44;5056992;28;20626;-70
2022/10/09 09:32:28;;;;;;;14.13;6.90;;;;;;;13.23;94.70;102339.00;5057927;28;20106;-69
2022/10/09 09:35:05;;;;;;;11.35;6.20;;;;;;;13.32;90.86;102333.19;5055994;28;20028;-70
2022/10/09 09:37:30;;;;;;;13.63;6.57;;;;;;;13.41;90.05;102343.44;5056738;28;20123;-69
2022/10/09 09:39:56;;;;;;;11.43;6.15;;;;;;;13.29;90.04;102332.47;5054615;28;20044;-72
2022/10/09 09:42:22;;;;;;;11.52;6.30;;;;;;;13.03;90.50;102323.91;5058875;28;20120;-72
2022/10/09 09:45:04;;;;;;;17.63;6.53;;;;;;;13.22;90.26;102323.91;5058172;28;20036;-71
2022/10/09 09:47:29;;;;;;;;;;;;;;;13.23;90.20;102335.47;5059922;28;20040;-70
2022/10/09 09:49:58;;;;;;;13.02;6.22;;;;;;;13.16;88.00;102322.38;5055310;28;20645;-69
2022/10/09 09:52:27;;;;;;;13.57;6.80;;;;;;;13.26;90.20;102325.47;5036033;28;20156;-71
2022/10/09 09:54:56;;;;;;;11.73;5.78;;;;;;;13.45;87.98;102320.00;5054248;28;20093;-70
2022/10/09 09:57:35;;;;;;;14.85;7.22;;;;;;;13.51;88.16;102303.66;5059289;28;20044;-70
2022/10/09 10:00:22;;;;;;;11.23;6.40;;;;;;;13.45;88.17;102309.31;5043349;28;20040;-70
2022/10/09 10:02:48;;;;;;;15.15;6.40;;;;;;;13.70;89.25;102303.53;5055103;28;20036;-70
2022/10/09 10:05:20;;;;;;;10.65;5.60;;;;;;;13.61;86.03;102285.28;5038860;28;20082;-70
2022/10/09 10:07:48;;;;;;;16.83;6.00;;;;;;;13.84;86.96;102294.75;5038310;28;20040;-68
2022/10/09 10:10:25;;;;;;;8.77;5.68;;;;;;;13.79;84.46;102292.31;5056087;28;20038;-69
2022/10/09 10:12:50;;;;;;;15.20;6.22;;;;;;;14.03;84.70;102286.56;5043856;28;20211;-69
2022/10/09 10:15:24;;;;;;;15.55;6.20;;;;;;;14.48;85.75;102285.88;5050404;28;20511;-68
2022/10/09 10:17:57;;;;;;;10.25;6.53;;;;;;;14.24;84.69;102288.06;5038237;28;20594;-69
2022/10/09 10:20:23;;;;;;;13.63;6.45;;;;;;;14.20;84.44;102282.00;5061307;28;20100;-68
2022/10/09 10:22:55;;;;;;;12.13;6.10;;;;;;;14.43;83.90;102282.53;5041705;28;20055;-70
2022/10/09 10:25:24;;;;;;;7.57;4.73;;;;;;;14.37;82.65;102280.22;5041447;28;20281;-69
2022/10/09 10:27:56;;;;;;;18.98;5.53;;;;;;;14.35;83.28;102280.28;5058749;28;20044;-69
2022/10/09 10:30:21;;;;;;;13.77;5.43;;;;;;;13.98;82.11;102273.41;5037127;28;20137;-73
2022/10/09 10:32:59;;;;;;;12.95;6.03;;;;;;;14.06;82.36;102273.88;5060434;28;20044;-73
2022/10/09 10:35:36;;;;;;;12.57;4.70;;;;;;;14.24;80.33;102262.09;5060830;28;20041;-68
2022/10/09 10:38:25;;;;;;;14.68;5.82;;;;;;;14.32;80.53;102253.63;5060257;28;20032;-70
2022/10/09 10:41:12;;;;;;;22.48;6.60;;;;;;;14.60;81.02;102257.44;5056298;28;20029;-71
2022/10/09 10:43:43;;;;;;;11.13;6.28;;;;;;;14.51;80.69;102258.88;5055926;28;20844;-69
2022/10/09 10:46:20;;;;;;;10.93;5.50;;;;;;;14.71;81.04;102241.59;5051695;28;20054;-70
2022/10/09 10:48:47;;;;;;;13.05;4.55;;;;;;;14.60;79.81;102238.66;5038832;28;20922;-70
2022/10/09 10:51:12;;;;;;;11.30;5.32;;;;;;;14.72;78.50;102237.97;5052026;28;20037;-69
2022/10/09 10:53:54;;;;;;;13.70;4.32;;;;;;;14.92;78.76;102236.78;5059109;28;20101;-67
2022/10/09 10:56:30;;;;;;;11.73;4.93;;;;;;;14.80;78.89;102234.81;5052913;28;20127;-69
2022/10/09 10:59:18;;;;;;;9.82;4.53;;;;;;;14.94;79.27;102232.19;5051221;28;20771;-70
2022/10/09 11:01:53;;;;;;;10.50;4.55;;;;;;;15.23;79.10;102230.44;5059453;28;20063;-72
2022/10/09 11:04:24;;;;;;;9.02;4.07;;;;;;;14.72;77.66;102225.41;5054635;28;20079;-69
2022/10/09 11:07:14;;;;;;;16.70;4.93;;;;;;;15.20;80.17;102211.78;5054799;28;20049;-71
2022/10/09 11:10:00;;;;;;;15.55;5.50;;;;;;;15.13;79.27;102213.13;5037091;28;20071;-71
2022/10/09 11:12:32;;;;;;;9.68;3.92;;;;;;;14.83;78.31;102210.47;5052000;28;20096;-70
2022/10/09 11:15:08;;;;;;;11.30;3.92;;;;;;;15.20;78.06;102201.91;5054857;28;20033;-68
2022/10/09 11:17:45;;;;;;;16.88;5.07;;;;;;;15.36;76.77;102188.41;5051823;28;20049;-69
2022/10/09 11:20:26;;;;;;;17.33;4.78;;;;;;;15.19;78.13;102197.50;5056873;28;20135;-69
2022/10/09 11:23:25;;;;;;;8.65;4.30;;;;;;;15.14;77.42;102194.22;5059421;28;20049;-69
2022/10/09 11:26:08;;;;;;;11.85;5.03;;;;;;;15.41;79.62;102191.69;5056901;28;20937;-70
2022/10/09 11:28:40;;;;;;;13.15;5.63;;;;;;;15.14;76.55;102188.00;5058159;28;20106;-70
2022/10/09 11:31:38;;;;;;;14.05;5.70;;;;;;;15.25;78.65;102177.44;5036074;28;20072;-70
2022/10/09 11:34:27;;;;;;;14.40;5.43;;;;;;;15.27;77.01;102178.22;5050298;28;20063;-69